Time;durP1;ratioP1;P1;durP2;ratioP2;P2;SDS_P1;SDS_P2;PMS_P1;PMS_P2;Temp;Humidity;BMP_temperature;BMP_pressure;BME280_temperature;BME280_humidity;BME280_pressure;Samples;Min_cycle;Max_cycle;Signal;HPM_P1;HPM_P2
2022/12/21 00:01:09;;;;;;;12.20;8.23;;;9.30;99.90;;;;;;5096099;28;20194;-81
2022/12/21 00:03:36;;;;;;;13.90;9.07;;;9.30;99.90;;;;;;5098628;28;20202;-81
2022/12/21 00:06:03;;;;;;;11.57;8.20;;;9.20;99.90;;;;;;5098569;28;20587;-81
2022/12/21 00:08:35;;;;;;;11.90;8.13;;;9.20;99.90;;;;;;5096853;28;20251;-81
2022/12/21 00:11:01;;;;;;;11.37;8.23;;;9.20;99.90;;;;;;5095922;28;20576;-81
2022/12/21 00:13:28;;;;;;;11.63;8.30;;;9.10;99.90;;;;;;5089458;28;20229;-79
2022/12/21 00:15:58;;;;;;;14.83;9.47;;;9.10;99.90;;;;;;5077473;28;20206;-81
2022/12/21 00:18:25;;;;;;;11.43;8.70;;;9.10;99.90;;;;;;5076028;28;20226;-81
2022/12/21 00:20:59;;;;;;;12.43;8.67;;;9.10;99.90;;;;;;5078052;28;20568;-80
2022/12/21 00:23:26;;;;;;;12.70;8.90;;;9.10;99.90;;;;;;5077614;28;20202;-81
2022/12/21 00:25:54;;;;;;;14.23;9.27;;;9.00;99.90;;;;;;5077995;28;20202;-80
2022/12/21 00:28:21;;;;;;;12.37;8.63;;;9.10;99.90;;;;;;5077892;28;20229;-79
2022/12/21 00:30:48;;;;;;;12.70;9.17;;;9.10;99.90;;;;;;5078306;28;20198;-81
2022/12/21 00:33:15;;;;;;;14.30;8.63;;;9.00;99.90;;;;;;5077442;28;20570;-81
2022/12/21 00:35:47;;;;;;;13.13;9.20;;;9.00;99.90;;;;;;5077571;28;20202;-81
2022/12/21 00:38:14;;;;;;;15.20;9.33;;;8.90;99.90;;;;;;5076600;28;20260;-81
2022/12/21 00:40:41;;;;;;;13.20;9.40;;;8.90;99.90;;;;;;5077309;28;20573;-81
2022/12/21 00:43:10;;;;;;;13.50;9.60;;;8.90;99.90;;;;;;5077055;28;20202;-81
2022/12/21 00:45:36;;;;;;;12.67;9.10;;;8.80;99.90;;;;;;5077225;28;20212;-81
2022/12/21 00:48:04;;;;;;;13.77;9.47;;;8.70;99.90;;;;;;5077193;28;20595;-81
2022/12/21 00:50:33;;;;;;;14.97;9.73;;;8.80;99.90;;;;;;5076958;28;20209;-81
2022/12/21 00:52:59;;;;;;;16.27;9.77;;;8.80;99.90;;;;;;5077475;28;20553;-81
2022/12/21 00:55:26;;;;;;;14.60;9.33;;;8.80;99.90;;;;;;5077745;28;20695;-81
2022/12/21 00:57:53;;;;;;;12.87;9.43;;;8.80;99.90;;;;;;5077220;28;20595;-81
2022/12/21 01:00:22;;;;;;;12.80;9.23;;;8.80;99.90;;;;;;5077128;28;20218;-80
2022/12/21 01:02:48;;;;;;;13.50;9.40;;;8.70;99.90;;;;;;5076720;28;20568;-80
2022/12/21 01:05:15;;;;;;;13.20;9.90;;;8.60;99.90;;;;;;5077055;28;20574;-81
2022/12/21 01:07:42;;;;;;;14.43;9.60;;;8.60;99.90;;;;;;5076861;28;20226;-81
2022/12/21 01:10:10;;;;;;;14.13;10.00;;;8.60;99.90;;;;;;5077263;28;20213;-81
2022/12/21 01:12:37;;;;;;;15.17;10.50;;;8.60;99.90;;;;;;5076690;28;20204;-81
2022/12/21 01:15:04;;;;;;;14.37;10.23;;;8.60;99.90;;;;;;5076673;28;20225;-80
2022/12/21 01:17:33;;;;;;;14.57;10.53;;;8.50;99.90;;;;;;5077116;28;20226;-80
2022/12/21 01:20:00;;;;;;;15.50;10.77;;;8.60;99.90;;;;;;5076822;28;20202;-80
2022/12/21 01:22:26;;;;;;;15.17;10.00;;;8.60;99.90;;;;;;5076694;28;20261;-80
2022/12/21 01:24:53;;;;;;;16.47;10.23;;;8.50;99.90;;;;;;5077061;28;20202;-82
2022/12/21 01:27:20;;;;;;;14.23;10.53;;;8.70;99.90;;;;;;5077143;28;20226;-81
2022/12/21 01:29:47;;;;;;;14.13;10.07;;;8.70;99.90;;;;;;5077028;28;20209;-80
2022/12/21 01:32:13;;;;;;;14.23;10.43;;;8.70;99.90;;;;;;5076635;28;20212;-81
2022/12/21 01:34:41;;;;;;;14.20;9.60;;;8.80;99.90;;;;;;5076408;28;20582;-81
2022/12/21 01:37:08;;;;;;;14.10;9.53;;;8.70;99.90;;;;;;5076699;28;20228;-81
2022/12/21 01:39:35;;;;;;;15.03;10.20;;;8.80;99.90;;;;;;5076732;28;20206;-81
2022/12/21 01:42:02;;;;;;;15.07;9.83;;;8.70;99.90;;;;;;5076337;28;20202;-81
2022/12/21 01:45:00;;;;;;;14.97;9.60;;;8.80;99.90;;;;;;5076444;28;20678;-81
2022/12/21 01:47:31;;;;;;;13.60;9.60;;;8.60;99.90;;;;;;5076800;28;20234;-80
2022/12/21 01:50:04;;;;;;;13.77;9.60;;;8.60;99.90;;;;;;5076243;28;20569;-80
2022/12/21 01:52:32;;;;;;;16.13;10.47;;;8.60;99.90;;;;;;5075989;28;20202;-81
2022/12/21 01:55:03;;;;;;;13.60;9.67;;;8.60;99.90;;;;;;5075906;28;20218;-81
2022/12/21 01:57:33;;;;;;;14.67;10.50;;;8.50;99.90;;;;;;5083303;28;20728;-81
2022/12/21 02:00:03;;;;;;;16.47;10.80;;;8.60;99.90;;;;;;5096144;28;20200;-80
2022/12/21 02:02:33;;;;;;;15.57;11.10;;;8.50;99.90;;;;;;5101795;28;20201;-81
2022/12/21 02:05:11;;;;;;;16.43;11.53;;;8.50;99.90;;;;;;5108974;28;20205;-80
2022/12/21 02:07:39;;;;;;;14.87;10.67;;;8.50;99.90;;;;;;5102759;28;20220;-81
2022/12/21 02:10:08;;;;;;;15.47;11.67;;;8.50;99.90;;;;;;5106880;28;20201;-81
2022/12/21 02:12:35;;;;;;;16.37;10.97;;;8.40;99.90;;;;;;5103025;28;20221;-81
2022/12/21 02:15:02;;;;;;;16.47;12.03;;;8.40;99.90;;;;;;5095612;28;20221;-81
2022/12/21 02:17:42;;;;;;;15.30;11.60;;;8.50;99.90;;;;;;5084817;28;20598;-80
2022/12/21 02:20:42;;;;;;;17.50;12.60;;;8.40;99.90;;;;;;5075210;28;20190;-80
2022/12/21 02:23:48;;;;;;;18.17;12.23;;;8.40;99.90;;;;;;5073476;28;20214;-81
2022/12/21 02:26:43;;;;;;;18.33;12.37;;;8.40;99.90;;;;;;5074886;28;20209;-80
2022/12/21 02:29:36;;;;;;;17.90;12.73;;;8.40;99.90;;;;;;5074901;28;20704;-81
2022/12/21 02:32:11;;;;;;;15.80;10.93;;;8.30;99.90;;;;;;5073271;28;20670;-80
2022/12/21 02:34:47;;;;;;;17.77;11.93;;;8.30;99.90;;;;;;5075225;28;20232;-80
2022/12/21 02:37:20;;;;;;;18.07;12.33;;;8.20;99.90;;;;;;5073726;28;20261;-80
2022/12/21 02:39:54;;;;;;;18.67;13.07;;;8.20;99.90;;;;;;5073990;28;20208;-80
2022/12/21 02:45:19;;;;;;;20.80;13.20;;;8.20;99.90;;;;;;5094577;28;20262;-81
2022/12/21 02:47:54;;;;;;;19.13;13.57;;;8.20;99.90;;;;;;5095152;28;20252;-81
2022/12/21 02:50:24;;;;;;;19.90;13.80;;;8.20;99.90;;;;;;5094341;28;20197;-81
2022/12/21 02:52:56;;;;;;;20.87;13.97;;;8.30;99.90;;;;;;5094251;28;20676;-81
2022/12/21 02:55:26;;;;;;;21.13;14.90;;;8.30;99.90;;;;;;5094965;28;20221;-81
2022/12/21 02:58:13;;;;;;;22.30;14.20;;;8.40;99.90;;;;;;5082490;28;20237;-80
2022/12/21 03:00:48;;;;;;;22.33;14.57;;;8.30;99.90;;;;;;5074369;28;20233;-81
2022/12/21 03:06:34;;;;;;;20.60;14.67;;;8.30;99.90;;;;;;5051109;28;20207;-80
2022/12/21 03:09:13;;;;;;;19.47;13.57;;;8.30;99.90;;;;;;5087823;28;20207;-80
2022/12/21 03:11:47;;;;;;;19.30;14.67;;;8.50;99.90;;;;;;5098919;28;20307;-81
2022/12/21 03:14:25;;;;;;;20.63;14.97;;;8.30;99.90;;;;;;5093541;28;20653;-81
2022/12/21 03:16:56;;;;;;;19.93;14.53;;;8.30;99.90;;;;;;5094812;28;20580;-81
2022/12/21 03:19:32;;;;;;;20.87;14.83;;;8.30;99.90;;;;;;5076358;28;20659;-81
2022/12/21 03:22:03;;;;;;;21.07;15.10;;;8.30;99.90;;;;;;5073358;28;20571;-81
2022/12/21 03:24:35;;;;;;;21.13;14.80;;;8.20;99.90;;;;;;5074096;28;20212;-81
2022/12/21 03:27:11;;;;;;;20.30;15.30;;;8.20;99.90;;;;;;5074092;28;20225;-81
2022/12/21 03:29:43;;;;;;;21.47;15.23;;;8.20;99.90;;;;;;5093653;28;20566;-81
2022/12/21 03:32:14;;;;;;;20.63;14.70;;;8.30;99.90;;;;;;5094532;28;20197;-81
2022/12/21 03:34:46;;;;;;;22.63;14.77;;;8.20;99.90;;;;;;5095098;28;20223;-79
2022/12/21 03:37:18;;;;;;;21.10;14.83;;;8.10;99.90;;;;;;5093592;28;20279;-79
2022/12/21 03:39:51;;;;;;;21.90;15.43;;;8.10;99.90;;;;;;5094040;28;20213;-81
2022/12/21 03:42:22;;;;;;;22.63;14.73;;;8.20;99.90;;;;;;5094945;28;20201;-80
2022/12/21 03:44:54;;;;;;;21.57;15.47;;;8.10;99.90;;;;;;5094143;28;20197;-81
2022/12/21 03:47:27;;;;;;;21.73;15.50;;;8.00;99.90;;;;;;5093980;28;20655;-81
2022/12/21 03:49:59;;;;;;;22.17;16.20;;;8.10;99.90;;;;;;5094849;28;20522;-81
2022/12/21 03:52:33;;;;;;;23.40;16.00;;;8.10;99.90;;;;;;5094857;28;20209;-80
2022/12/21 03:55:04;;;;;;;21.93;15.60;;;8.20;99.90;;;;;;5093832;28;20253;-80
2022/12/21 03:57:32;;;;;;;24.30;16.10;;;8.30;99.90;;;;;;5094731;28;20233;-81
2022/12/21 04:00:02;;;;;;;23.90;16.30;;;8.30;99.90;;;;;;5093438;28;20206;-80
2022/12/21 04:02:34;;;;;;;21.43;15.77;;;8.20;99.90;;;;;;5094723;28;20293;-81
2022/12/21 04:05:07;;;;;;;21.87;15.90;;;8.10;99.90;;;;;;5098527;28;20201;-80
2022/12/21 04:07:35;;;;;;;22.10;15.47;;;8.10;99.90;;;;;;5100560;28;20585;-80
2022/12/21 04:10:06;;;;;;;23.53;16.20;;;8.10;99.90;;;;;;5113563;28;20201;-81
2022/12/21 04:12:38;;;;;;;23.53;16.57;;;8.20;99.90;;;;;;5097686;28;20202;-80
2022/12/21 04:15:07;;;;;;;23.80;15.37;;;8.30;99.90;;;;;;5096865;28;20271;-80
2022/12/21 04:17:34;;;;;;;22.87;16.33;;;8.20;99.90;;;;;;5088181;28;20222;-80
2022/12/21 04:20:02;;;;;;;24.13;17.10;;;8.30;99.90;;;;;;5078174;28;20206;-81
2022/12/21 04:28:10;;;;;;;23.60;16.60;;;8.10;99.90;;;;;;5075956;28;20720;-81
2022/12/21 04:30:38;;;;;;;22.53;15.83;;;8.20;99.90;;;;;;5076988;28;20210;-81
2022/12/21 04:33:05;;;;;;;23.30;16.47;;;8.10;99.90;;;;;;5076777;28;20217;-81
2022/12/21 04:35:34;;;;;;;24.13;15.60;;;8.20;99.90;;;;;;5077490;28;20214;-80
2022/12/21 04:38:00;;;;;;;25.93;16.70;;;8.10;99.90;;;;;;5076335;28;20682;-80
2022/12/21 04:40:27;;;;;;;24.60;15.53;;;8.20;99.90;;;;;;5077797;28;20610;-81
2022/12/21 04:42:54;;;;;;;25.27;16.30;;;8.10;99.90;;;;;;5075678;28;20206;-81
2022/12/21 04:45:21;;;;;;;22.97;15.90;;;8.00;99.90;;;;;;5077017;28;20202;-82
2022/12/21 04:47:48;;;;;;;23.53;16.70;;;8.10;99.90;;;;;;5079619;28;20229;-81
2022/12/21 04:50:14;;;;;;;22.67;15.63;;;8.10;99.90;;;;;;5105374;28;20483;-82
2022/12/21 04:52:42;;;;;;;24.53;16.80;;;7.90;99.90;;;;;;5111571;28;20211;-80
2022/12/21 04:55:09;;;;;;;24.53;16.77;;;7.90;99.90;;;;;;5094732;28;20218;-80
2022/12/21 04:57:36;;;;;;;25.00;16.77;;;8.00;99.90;;;;;;5094299;28;20720;-81
2022/12/21 05:00:05;;;;;;;23.07;16.50;;;8.00;99.90;;;;;;5107166;28;20194;-82
2022/12/21 05:02:31;;;;;;;21.97;15.03;;;7.90;99.90;;;;;;5110178;28;20410;-81
2022/12/21 05:04:58;;;;;;;24.53;16.80;;;7.90;99.90;;;;;;5097846;28;20206;-81
2022/12/21 05:07:25;;;;;;;23.27;16.30;;;8.00;99.90;;;;;;5097337;28;20214;-81
2022/12/21 05:09:53;;;;;;;23.03;16.70;;;8.00;99.90;;;;;;5096335;28;20194;-81
2022/12/21 05:12:20;;;;;;;23.93;16.50;;;8.10;99.90;;;;;;5095349;28;20210;-81
2022/12/21 05:14:46;;;;;;;21.83;15.13;;;8.10;99.90;;;;;;5095105;28;20221;-80
2022/12/21 05:17:13;;;;;;;22.03;15.80;;;8.10;99.90;;;;;;5096107;28;20218;-81
2022/12/21 05:19:40;;;;;;;22.10;15.47;;;8.00;99.90;;;;;;5076742;28;20206;-82
2022/12/21 05:22:07;;;;;;;22.80;16.20;;;8.00;99.90;;;;;;5076253;28;20210;-81
2022/12/21 05:24:33;;;;;;;21.00;15.27;;;8.00;99.90;;;;;;5076097;28;20560;-82
2022/12/21 05:27:01;;;;;;;22.60;15.93;;;8.00;99.90;;;;;;5074871;28;20233;-82
2022/12/21 05:29:28;;;;;;;22.67;15.60;;;7.90;99.90;;;;;;5076129;28;20582;-81
2022/12/21 05:31:55;;;;;;;21.13;15.10;;;7.90;99.90;;;;;;5074792;28;20678;-81
2022/12/21 05:34:22;;;;;;;23.03;15.73;;;8.00;99.90;;;;;;5076583;28;20217;-81
2022/12/21 05:36:48;;;;;;;22.80;16.43;;;8.00;99.90;;;;;;5075799;28;20202;-80
2022/12/21 05:39:15;;;;;;;23.47;17.50;;;8.10;99.90;;;;;;5074409;28;20670;-81
2022/12/21 05:41:42;;;;;;;23.73;16.23;;;8.20;99.90;;;;;;5074579;28;20206;-81
2022/12/21 05:44:11;;;;;;;25.07;17.03;;;8.20;99.90;;;;;;5075864;28;20288;-81
2022/12/21 05:46:38;;;;;;;24.40;17.83;;;8.20;99.90;;;;;;5073843;28;20205;-81
2022/12/21 05:49:08;;;;;;;23.97;17.50;;;8.20;99.90;;;;;;5098045;28;20197;-80
2022/12/21 05:51:34;;;;;;;23.67;16.07;;;8.10;99.90;;;;;;5088062;28;20212;-80
2022/12/21 05:54:01;;;;;;;21.43;16.13;;;8.00;99.90;;;;;;5090641;28;20601;-80
2022/12/21 05:56:28;;;;;;;22.17;16.43;;;8.20;99.90;;;;;;5088539;28;20292;-81
2022/12/21 05:58:55;;;;;;;21.90;16.07;;;8.00;99.90;;;;;;5075337;28;20243;-81
2022/12/21 06:01:23;;;;;;;22.93;16.33;;;8.10;99.90;;;;;;5075978;28;20285;-80
2022/12/21 06:03:50;;;;;;;20.80;15.43;;;8.00;99.90;;;;;;5075738;28;20234;-81
2022/12/21 06:06:18;;;;;;;22.97;15.40;;;8.00;99.90;;;;;;5074739;28;20209;-81
2022/12/21 06:08:45;;;;;;;23.43;16.03;;;7.90;99.90;;;;;;5075413;28;20597;-81
2022/12/21 06:11:14;;;;;;;21.33;15.27;;;8.00;99.90;;;;;;5102349;28;20196;-81
2022/12/21 06:13:41;;;;;;;21.13;14.60;;;8.00;99.90;;;;;;5099480;28;20204;-81
2022/12/21 06:16:10;;;;;;;20.30;13.60;;;7.90;99.90;;;;;;5095639;28;20218;-80
2022/12/21 06:18:38;;;;;;;20.13;14.67;;;7.90;99.90;;;;;;5083315;28;20230;-81
2022/12/21 06:21:07;;;;;;;19.83;14.50;;;7.90;99.90;;;;;;5074820;28;20204;-81
2022/12/21 06:23:34;;;;;;;20.90;15.03;;;7.90;99.90;;;;;;5074348;28;20214;-81
2022/12/21 06:26:02;;;;;;;21.07;15.67;;;7.90;99.90;;;;;;5073669;28;20568;-80
2022/12/21 06:28:30;;;;;;;20.73;15.10;;;7.90;99.90;;;;;;5075434;28;20233;-80
2022/12/21 06:31:03;;;;;;;21.80;15.87;;;7.90;99.90;;;;;;5075287;28;20665;-80
2022/12/21 06:33:30;;;;;;;22.80;16.43;;;7.90;99.90;;;;;;5075004;28;20667;-81
2022/12/21 06:35:58;;;;;;;23.73;16.43;;;8.00;99.90;;;;;;5074642;28;20226;-80
2022/12/21 06:38:25;;;;;;;22.23;15.67;;;8.00;99.90;;;;;;5075164;28;20222;-81
2022/12/21 06:40:56;;;;;;;23.97;16.83;;;8.00;99.90;;;;;;5074833;28;20209;-80
2022/12/21 06:43:23;;;;;;;23.87;16.57;;;8.10;99.90;;;;;;5073934;28;20207;-80
2022/12/21 06:45:55;;;;;;;22.33;15.37;;;8.10;99.90;;;;;;5075083;28;20202;-81
2022/12/21 06:48:22;;;;;;;24.43;17.10;;;7.90;99.90;;;;;;5074160;28;20268;-80
2022/12/21 06:50:53;;;;;;;22.67;16.50;;;8.10;99.90;;;;;;5074679;28;20202;-81
2022/12/21 06:53:22;;;;;;;26.23;17.47;;;8.00;99.90;;;;;;5074564;28;20206;-80
2022/12/21 06:55:48;;;;;;;26.50;16.83;;;8.10;99.90;;;;;;5074218;28;20218;-81
2022/12/21 06:58:15;;;;;;;24.80;16.40;;;8.10;99.90;;;;;;5074709;28;20230;-80
2022/12/21 07:00:42;;;;;;;24.63;17.40;;;8.00;99.90;;;;;;5074868;28;20288;-81
2022/12/21 07:03:09;;;;;;;23.57;16.10;;;7.90;99.90;;;;;;5074100;28;20202;-81
2022/12/21 07:05:36;;;;;;;22.83;15.53;;;7.90;99.90;;;;;;5074824;28;20205;-81
2022/12/21 07:08:02;;;;;;;23.57;16.23;;;7.90;99.90;;;;;;5074739;28;20242;-79
2022/12/21 07:10:30;;;;;;;24.67;17.03;;;7.90;99.90;;;;;;5074382;28;20580;-82
2022/12/21 07:12:57;;;;;;;24.60;16.20;;;7.90;99.90;;;;;;5073251;28;20212;-81
2022/12/21 07:15:24;;;;;;;24.50;16.77;;;7.90;99.90;;;;;;5073801;28;20252;-81
2022/12/21 07:17:51;;;;;;;24.17;16.80;;;8.00;99.90;;;;;;5074150;28;20682;-80
2022/12/21 07:20:18;;;;;;;24.70;16.77;;;7.80;99.90;;;;;;5074481;28;20204;-81
2022/12/21 07:22:45;;;;;;;24.23;16.57;;;7.80;99.90;;;;;;5073767;28;20209;-80
2022/12/21 07:25:11;;;;;;;26.30;17.37;;;7.80;99.90;;;;;;5074175;28;20210;-80
2022/12/21 07:27:39;;;;;;;23.73;16.87;;;8.00;99.90;;;;;;5074420;28;20221;-81
2022/12/21 07:30:08;;;;;;;26.07;15.40;;;8.00;99.90;;;;;;5074793;28;20579;-81
2022/12/21 07:32:34;;;;;;;23.23;15.23;;;7.90;99.90;;;;;;5074422;28;20217;-81
2022/12/21 07:35:01;;;;;;;21.80;15.47;;;7.90;99.90;;;;;;5074501;28;20206;-81
2022/12/21 07:37:28;;;;;;;23.47;15.60;;;7.80;99.90;;;;;;5074246;28;20218;-80
2022/12/21 07:39:55;;;;;;;23.40;15.30;;;7.70;99.90;;;;;;5075007;28;20190;-81
2022/12/21 07:42:21;;;;;;;23.50;16.63;;;7.80;99.90;;;;;;5074052;28;20210;-80
2022/12/21 07:44:49;;;;;;;25.00;16.50;;;7.80;99.90;;;;;;5074914;28;20210;-81
2022/12/21 07:47:16;;;;;;;23.77;15.27;;;7.90;99.90;;;;;;5075008;28;20515;-80
2022/12/21 07:49:43;;;;;;;30.60;18.23;;;7.90;99.90;;;;;;5078547;28;20202;-80
2022/12/21 07:52:10;;;;;;;25.00;17.50;;;7.90;99.90;;;;;;5078217;28;20200;-81
2022/12/21 07:54:36;;;;;;;26.13;16.93;;;7.90;99.90;;;;;;5078469;28;20202;-81
2022/12/21 07:57:03;;;;;;;24.37;16.23;;;8.00;99.90;;;;;;5078097;28;20226;-80
2022/12/21 07:59:30;;;;;;;26.50;17.97;;;8.10;99.90;;;;;;5078133;28;20214;-81
2022/12/21 08:01:58;;;;;;;23.70;16.07;;;8.20;99.90;;;;;;5077344;28;20203;-82
2022/12/21 08:04:25;;;;;;;23.23;17.17;;;8.20;99.90;;;;;;5077683;28;20632;-81
2022/12/21 08:06:52;;;;;;;24.57;15.73;;;8.20;99.90;;;;;;5081324;28;20545;-80
2022/12/21 08:09:18;;;;;;;25.70;17.33;;;8.20;99.90;;;;;;5095644;28;20197;-80
2022/12/21 08:11:46;;;;;;;24.80;17.63;;;8.20;99.90;;;;;;5096546;28;20564;-81
2022/12/21 08:14:13;;;;;;;29.40;18.20;;;8.30;99.90;;;;;;5098455;28;20217;-81
2022/12/21 08:16:39;;;;;;;25.93;17.93;;;8.20;99.90;;;;;;5116588;28;20669;-81
2022/12/21 08:19:08;;;;;;;26.80;17.93;;;8.40;99.90;;;;;;5095034;28;20208;-80
2022/12/21 08:21:34;;;;;;;24.67;17.67;;;8.50;99.90;;;;;;5095922;28;20194;-80
2022/12/21 08:24:01;;;;;;;27.00;16.20;;;8.40;99.90;;;;;;5077033;28;20658;-80
2022/12/21 08:26:28;;;;;;;23.70;15.73;;;8.50;99.90;;;;;;5077734;28;20304;-81
2022/12/21 08:28:57;;;;;;;22.63;14.33;;;8.30;99.90;;;;;;5077539;28;20230;-80
2022/12/21 08:31:23;;;;;;;22.53;15.13;;;8.20;99.90;;;;;;5077268;28;20275;-81
2022/12/21 08:33:50;;;;;;;22.03;14.07;;;8.20;99.90;;;;;;5077737;28;20216;-81
2022/12/21 08:36:21;;;;;;;22.50;14.57;;;8.30;99.90;;;;;;5077510;28;20214;-79
2022/12/21 08:38:48;;;;;;;19.73;13.43;;;8.10;99.90;;;;;;5076109;28;20230;-81
2022/12/21 08:41:16;;;;;;;22.37;14.27;;;8.10;99.90;;;;;;5076601;28;20596;-81
2022/12/21 08:43:43;;;;;;;24.90;14.50;;;8.30;99.90;;;;;;5092266;28;20197;-81
2022/12/21 08:46:12;;;;;;;22.23;14.00;;;8.30;99.90;;;;;;5117884;28;20201;-80
2022/12/21 08:48:39;;;;;;;21.87;15.30;;;8.30;99.90;;;;;;5106065;28;20217;-81
2022/12/21 08:51:07;;;;;;;22.37;15.00;;;8.30;99.90;;;;;;5093742;28;20194;-82
2022/12/21 08:53:36;;;;;;;22.70;15.40;;;8.40;99.90;;;;;;5077273;28;20210;-80
2022/12/21 08:56:04;;;;;;;22.60;14.70;;;8.40;99.90;;;;;;5076826;28;20234;-82
2022/12/21 08:58:31;;;;;;;22.30;15.03;;;8.40;99.90;;;;;;5077404;28;20253;-82
2022/12/21 09:00:58;;;;;;;23.20;15.17;;;8.40;99.90;;;;;;5085031;28;20575;-82
2022/12/21 09:03:26;;;;;;;21.27;14.07;;;8.40;99.90;;;;;;5101512;28;20200;-81
2022/12/21 09:05:54;;;;;;;21.80;14.57;;;8.40;99.90;;;;;;5105103;28;20697;-81
2022/12/21 09:08:21;;;;;;;21.97;15.03;;;8.50;99.90;;;;;;5105635;28;20920;-81
2022/12/21 09:10:49;;;;;;;21.40;14.80;;;8.50;99.90;;;;;;5112405;28;20189;-81
2022/12/21 09:13:16;;;;;;;23.57;15.83;;;8.50;99.90;;;;;;5104886;28;20574;-81
2022/12/21 09:15:43;;;;;;;24.67;15.10;;;8.40;99.90;;;;;;5096731;28;20190;-82
2022/12/21 09:18:10;;;;;;;21.60;13.83;;;8.50;99.90;;;;;;5082760;28;20230;-80
2022/12/21 09:20:37;;;;;;;19.73;12.50;;;8.40;99.90;;;;;;5076567;28;20297;-81
2022/12/21 09:23:04;;;;;;;20.13;13.60;;;8.20;99.90;;;;;;5075944;28;20604;-81
2022/12/21 09:25:31;;;;;;;22.77;13.80;;;8.20;99.90;;;;;;5076890;28;20200;-81
2022/12/21 09:28:01;;;;;;;22.43;14.67;;;8.30;99.90;;;;;;5076927;28;20261;-81
2022/12/21 09:30:29;;;;;;;23.17;14.77;;;8.40;99.90;;;;;;5077578;28;20209;-80
2022/12/21 09:32:56;;;;;;;23.43;15.00;;;8.50;99.90;;;;;;5076224;28;20614;-82
2022/12/21 09:35:23;;;;;;;22.70;15.63;;;8.50;99.90;;;;;;5077260;28;20213;-82
2022/12/21 09:37:51;;;;;;;21.63;14.63;;;8.50;99.90;;;;;;5076637;28;20234;-82
2022/12/21 09:40:20;;;;;;;21.03;14.43;;;8.40;99.90;;;;;;5077057;28;20197;-81
2022/12/21 09:42:57;;;;;;;21.87;14.73;;;8.40;99.90;;;;;;5076892;28;20212;-82
2022/12/21 09:45:30;;;;;;;21.10;14.20;;;8.40;99.90;;;;;;5075364;28;20197;-81
2022/12/21 09:48:01;;;;;;;22.40;15.27;;;8.40;99.90;;;;;;5076052;28;20234;-81
2022/12/21 09:50:31;;;;;;;21.43;13.87;;;8.40;99.90;;;;;;5092790;28;20568;-80
2022/12/21 09:53:01;;;;;;;21.67;13.57;;;8.40;99.90;;;;;;5110504;28;20223;-80
2022/12/21 09:55:34;;;;;;;22.43;14.90;;;8.40;99.90;;;;;;5099168;28;20208;-82
2022/12/21 09:58:07;;;;;;;21.43;14.87;;;8.40;99.90;;;;;;5082407;28;20596;-81
2022/12/21 10:00:38;;;;;;;21.80;14.20;;;8.70;99.90;;;;;;5074839;28;20203;-82
2022/12/21 10:03:32;;;;;;;22.77;15.40;;;8.60;99.90;;;;;;5076116;28;20208;-81
2022/12/21 10:06:34;;;;;;;22.83;14.57;;;8.60;99.90;;;;;;5076004;28;20202;-82
2022/12/21 10:09:24;;;;;;;22.03;14.63;;;8.60;99.90;;;;;;5075212;28;20566;-80
2022/12/21 10:12:03;;;;;;;20.13;13.80;;;8.50;99.90;;;;;;5075827;28;20205;-81
2022/12/21 10:14:40;;;;;;;22.77;15.00;;;8.60;99.90;;;;;;5074424;28;20220;-82
2022/12/21 10:17:15;;;;;;;25.90;17.10;;;8.60;99.90;;;;;;5073318;28;20233;-81
2022/12/21 10:19:55;;;;;;;22.87;15.57;;;8.60;99.90;;;;;;5075581;28;20212;-82
2022/12/21 10:22:26;;;;;;;20.73;14.57;;;8.60;99.90;;;;;;5076422;28;20210;-81
2022/12/21 10:24:57;;;;;;;21.33;14.63;;;8.60;99.90;;;;;;5074686;28;20202;-82
2022/12/21 10:27:28;;;;;;;23.37;14.87;;;8.40;99.90;;;;;;5074820;28;20318;-81
2022/12/21 10:29:59;;;;;;;22.27;14.93;;;8.30;99.90;;;;;;5075539;28;20308;-81
2022/12/21 10:32:32;;;;;;;21.73;14.73;;;8.30;99.90;;;;;;5074599;28;20214;-80
2022/12/21 10:35:14;;;;;;;21.53;15.10;;;8.30;99.90;;;;;;5103849;28;20201;-81
2022/12/21 10:37:41;;;;;;;22.20;14.93;;;8.40;99.90;;;;;;5088936;28;20222;-82
2022/12/21 10:40:12;;;;;;;24.17;15.40;;;8.40;99.90;;;;;;5095267;28;20207;-80
2022/12/21 10:42:42;;;;;;;24.27;16.57;;;8.50;99.90;;;;;;5094591;28;20544;-81
2022/12/21 10:45:14;;;;;;;22.57;14.20;;;8.60;99.90;;;;;;5094607;28;20301;-81
2022/12/21 10:47:44;;;;;;;22.33;14.53;;;8.60;99.90;;;;;;5094489;28;20239;-80
2022/12/21 10:50:16;;;;;;;21.57;14.50;;;8.60;99.90;;;;;;5094017;28;20240;-80
2022/12/21 10:52:45;;;;;;;22.87;14.37;;;8.70;99.90;;;;;;5093117;28;20212;-80
2022/12/21 10:55:29;;;;;;;19.63;13.27;;;8.70;99.90;;;;;;5095528;28;20543;-81
2022/12/21 10:58:05;;;;;;;18.53;12.83;;;8.60;99.90;;;;;;5095009;28;20320;-81
2022/12/21 11:00:33;;;;;;;23.13;13.80;;;8.60;99.90;;;;;;5095550;28;20196;-81
2022/12/21 11:03:03;;;;;;;21.43;14.00;;;8.60;99.90;;;;;;5094993;28;20205;-81
2022/12/21 11:05:32;;;;;;;18.30;12.30;;;8.60;99.90;;;;;;5095639;28;20202;-81
2022/12/21 11:08:16;;;;;;;22.43;13.37;;;8.60;99.90;;;;;;5090228;28;20562;-81
2022/12/21 11:10:46;;;;;;;18.60;12.40;;;8.60;99.90;;;;;;5093292;28;20660;-81
2022/12/21 11:13:15;;;;;;;21.13;13.60;;;8.70;99.90;;;;;;5074501;28;20191;-81
2022/12/21 11:15:52;;;;;;;21.30;13.63;;;8.70;99.90;;;;;;5074955;28;20562;-81
2022/12/21 11:18:34;;;;;;;20.07;14.20;;;8.90;99.90;;;;;;5073968;28;20236;-80
2022/12/21 11:21:02;;;;;;;23.03;14.90;;;9.00;99.90;;;;;;5074620;28;20212;-81
2022/12/21 11:23:29;;;;;;;21.17;13.90;;;9.10;99.90;;;;;;5076323;28;20212;-81
2022/12/21 11:25:56;;;;;;;19.60;12.77;;;9.10;99.90;;;;;;5078891;28;20202;-81
2022/12/21 11:28:24;;;;;;;17.00;11.40;;;9.30;99.90;;;;;;5078172;28;20218;-82
2022/12/21 11:30:54;;;;;;;19.70;11.67;;;9.40;99.90;;;;;;5078808;28;20245;-82
2022/12/21 11:33:22;;;;;;;17.07;10.50;;;9.50;99.90;;;;;;5077125;28;20214;-80
2022/12/21 11:36:14;;;;;;;19.37;11.40;;;9.50;99.90;;;;;;5078862;28;20643;-82
2022/12/21 11:38:42;;;;;;;14.70;9.77;;;9.50;99.90;;;;;;5086803;28;20240;-81
2022/12/21 11:41:21;;;;;;;17.07;10.40;;;9.60;99.90;;;;;;5097794;28;20202;-81
2022/12/21 11:43:50;;;;;;;15.00;10.40;;;9.50;99.90;;;;;;5096967;28;20244;-80
2022/12/21 11:46:37;;;;;;;14.00;10.07;;;9.50;99.90;;;;;;5097412;28;20201;-81
2022/12/21 11:49:37;;;;;;;19.37;12.53;;;9.70;99.90;;;;;;5097847;28;20197;-81
2022/12/21 11:52:13;;;;;;;16.27;10.97;;;9.70;99.90;;;;;;5087268;28;20198;-80
2022/12/21 11:54:50;;;;;;;16.27;10.50;;;9.80;99.90;;;;;;5097390;28;20193;-82
2022/12/21 11:57:29;;;;;;;18.43;11.40;;;9.70;99.90;;;;;;5083621;28;20242;-81
2022/12/21 12:00:07;;;;;;;15.83;10.57;;;9.70;99.90;;;;;;5077687;28;20198;-81
2022/12/21 12:03:08;;;;;;;16.00;10.67;;;9.60;99.90;;;;;;5076564;28;20218;-81
2022/12/21 12:05:48;;;;;;;16.20;10.87;;;9.60;99.90;;;;;;5077725;28;20206;-81
2022/12/21 12:08:31;;;;;;;17.30;12.07;;;9.50;99.90;;;;;;5079291;28;20244;-81
2022/12/21 12:11:13;;;;;;;15.57;11.23;;;9.50;99.90;;;;;;5079374;28;20202;-82
2022/12/21 12:13:55;;;;;;;16.10;11.23;;;9.50;99.90;;;;;;5086018;28;20288;-81
2022/12/21 12:16:28;;;;;;;16.30;11.20;;;9.60;99.90;;;;;;5098865;28;20582;-82
2022/12/21 12:19:07;;;;;;;15.33;10.70;;;9.70;99.90;;;;;;5096783;28;20210;-81
2022/12/21 12:21:55;;;;;;;15.40;10.67;;;9.70;99.90;;;;;;5098050;28;20212;-81
2022/12/21 12:24:50;;;;;;;16.70;10.90;;;9.70;99.90;;;;;;5098231;28;20207;-81
2022/12/21 12:27:42;;;;;;;16.93;10.33;;;9.70;99.90;;;;;;5099310;28;20217;-80
2022/12/21 12:30:11;;;;;;;16.43;11.53;;;9.70;99.90;;;;;;5098121;28;20616;-81
2022/12/21 12:32:50;;;;;;;16.03;11.63;;;9.70;99.90;;;;;;5096964;28;20206;-82
2022/12/21 12:35:41;;;;;;;17.20;11.27;;;9.60;99.90;;;;;;5096445;28;20662;-80
2022/12/21 12:38:15;;;;;;;17.00;11.07;;;9.70;99.90;;;;;;5098647;28;20312;-81
2022/12/21 12:40:58;;;;;;;17.73;11.67;;;9.70;99.90;;;;;;5098224;28;20227;-81
2022/12/21 12:43:38;;;;;;;14.73;10.70;;;9.80;99.90;;;;;;5097580;28;20208;-80
2022/12/21 12:46:16;;;;;;;16.60;10.90;;;9.80;99.90;;;;;;5097145;28;20201;-80
2022/12/21 12:48:55;;;;;;;14.97;10.87;;;10.10;99.90;;;;;;5097951;28;20225;-82
2022/12/21 12:51:28;;;;;;;15.77;11.07;;;10.30;99.90;;;;;;5097607;28;20209;-81
2022/12/21 12:54:02;;;;;;;14.37;10.63;;;10.20;99.90;;;;;;5097685;28;20216;-82
2022/12/21 12:56:38;;;;;;;16.00;10.97;;;10.00;99.90;;;;;;5097581;28;20265;-82
2022/12/21 12:59:14;;;;;;;15.10;10.50;;;10.00;99.90;;;;;;5096989;28;20601;-81
2022/12/21 13:01:45;;;;;;;10.73;7.87;;;10.00;99.90;;;;;;5097027;28;20279;-81
2022/12/21 13:04:32;;;;;;;11.00;8.33;;;10.00;99.90;;;;;;5096881;28;20201;-80
2022/12/21 13:07:07;;;;;;;10.00;7.90;;;10.00;99.90;;;;;;5097724;28;20304;-81
2022/12/21 13:09:46;;;;;;;10.13;7.47;;;9.90;99.90;;;;;;5097038;28;20209;-82